Pagina principală
METAR-TAF:

METAR-TAF

Aeroporturi :

La Paz, Bolivia

Latitudine: 16-31S, longitudine: 068-11W, elevație: 4058 m

Observații meteo curente

Raportul a fost făcut în urmă cu 48 de minute, la 03:00 UTC
Vânt 2 kt din direcții variabile
Temperatură 7°C
Umiditate 22%
Presiune 1039 hPa
Vizibilitate de 10 km sau mai mult

METAR: SLLP 150300Z VRB02KT 9999 NSC 07/M13 Q1039

Ora: 23:48 (03:48 UTC)

Prognoză

Raportul a fost făcut în urmă cu 5 ore și 48 de minute, la 22:00 UTC
Prognoză valabilă de la 15 ora 00 UTC la 15 ora 24 UTC
Vânt 5 kt de la Nord-est
Vizibilitate de 10 km sau mai mult
Devenind
de la 15 ora 13 UTC la 15 ora 16 UTC
Vânt 10 kt de la Vest

TAF: SLLP 142200Z 1500/1524 04005KT 9999 NSC TX17/1519Z TNM04/1511Z BECMG 1513/1516 26010KT

Observații și prognoze meteo pentru peste 4.000 de aeroporturi (rapoarte METAR și TAF).

Stațiile disponibile sunt reprezentate pe hartă prin puncte galbene și roșii.

Țineți indicatorul mouse-ului pe punctul dorit pentru a vedea denumirea stației.

Apoi, faceți clic pentru a vedea observațiile și prognozele meteorologice.

Pentru a schimba harta: Pentru mărire, faceți clic pe butoanele verzi cu cruce neagră; pentru micșorare, pe butonul verde cu o liniuță; pentru hărți învecinate, pe săgețile verzi.


METAR-TAF: